createdAt,value
2023-04-06T00:00:03.950Z,85.03
2023-04-06T00:01:03.946Z,85.25
2023-04-06T00:02:03.980Z,85.35
2023-04-06T00:03:04.016Z,85.14
2023-04-06T00:04:03.946Z,85.10
2023-04-06T00:05:03.927Z,85.03
2023-04-06T00:06:03.928Z,85.03
2023-04-06T00:07:03.951Z,84.58
2023-04-06T00:08:03.899Z,84.62
2023-04-06T00:09:03.880Z,85.10
2023-04-06T00:10:03.884Z,85.21
2023-04-06T00:11:03.911Z,85.56
2023-04-06T00:12:03.915Z,85.35
2023-04-06T00:13:03.862Z,85.42
2023-04-06T00:14:03.854Z,85.83
2023-04-06T00:15:03.852Z,85.52
2023-04-06T00:16:03.878Z,85.42
2023-04-06T00:17:03.929Z,85.35
2023-04-06T00:18:03.884Z,84.83
2023-04-06T00:19:03.824Z,84.93
2023-04-06T00:20:03.808Z,85.14
2023-04-06T00:21:03.796Z,85.14
2023-04-06T00:22:03.857Z,85.35
2023-04-06T00:23:03.786Z,85.46
2023-04-06T00:24:03.777Z,84.83
2023-04-06T00:25:03.767Z,85.66
2023-04-06T00:26:04.762Z,85.88
2023-04-06T00:27:03.784Z,85.03
2023-04-06T00:28:03.755Z,85.46
2023-04-06T00:29:03.764Z,85.25
2023-04-06T00:30:03.756Z,84.83
2023-04-06T00:31:03.738Z,84.83
2023-04-06T00:32:03.790Z,85.03
2023-04-06T00:33:03.848Z,85.35
2023-04-06T00:34:03.716Z,85.14
2023-04-06T00:35:03.709Z,84.97
2023-04-06T00:36:03.715Z,85.14
2023-04-06T00:37:03.718Z,85.18
2023-04-06T00:38:03.705Z,85.08
2023-04-06T00:39:03.671Z,85.18
2023-04-06T00:40:03.677Z,85.14
2023-04-06T00:41:03.659Z,84.97
2023-04-06T00:42:03.670Z,85.49
2023-04-06T00:43:04.646Z,85.49
2023-04-06T00:44:03.638Z,85.49
2023-04-06T00:45:03.637Z,86.06
2023-04-06T00:46:03.661Z,85.49
2023-04-06T00:47:03.644Z,86.23
2023-04-06T00:48:03.612Z,85.74
2023-04-06T00:49:03.602Z,86.06
2023-04-06T00:50:03.590Z,86.06
2023-04-06T00:51:03.604Z,85.64
2023-04-06T00:52:03.606Z,85.85
2023-04-06T00:53:03.567Z,85.81
2023-04-06T00:54:03.569Z,85.81
2023-04-06T00:55:03.567Z,85.64
2023-04-06T00:56:03.550Z,85.42
2023-04-06T00:57:03.574Z,85.74
2023-04-06T00:58:03.535Z,85.32
2023-04-06T00:59:03.539Z,85.53
2023-04-06T01:00:03.556Z,85.91
2023-04-06T01:01:03.548Z,86.16
2023-04-06T01:02:03.534Z,86.27
2023-04-06T01:03:03.542Z,86.16
2023-04-06T01:04:03.508Z,85.01
2023-04-06T01:05:03.536Z,85.42
2023-04-06T01:06:03.480Z,84.97
2023-04-06T01:07:03.503Z,85.01
2023-04-06T01:08:03.470Z,85.64
2023-04-06T01:09:03.465Z,85.39
2023-04-06T01:10:03.480Z,85.53
2023-04-06T01:11:03.445Z,85.39
2023-04-06T01:12:03.455Z,85.22
2023-04-06T01:13:03.451Z,85.11
2023-04-06T01:14:03.423Z,85.32
2023-04-06T01:15:03.425Z,85.22
2023-04-06T01:16:03.421Z,85.85
2023-04-06T01:17:03.432Z,85.42
2023-04-06T01:18:03.482Z,85.64
2023-04-06T01:19:03.393Z,85.60
2023-04-06T01:20:03.386Z,85.85
2023-04-06T01:21:03.386Z,85.53
2023-04-06T01:22:03.402Z,85.64
2023-04-06T01:23:03.365Z,85.53
2023-04-06T01:24:03.359Z,85.74
2023-04-06T01:25:03.374Z,86.37
2023-04-06T01:26:03.341Z,86.52
2023-04-06T01:27:03.369Z,86.62
2023-04-06T01:28:03.333Z,86.52
2023-04-06T01:29:03.354Z,86.41
2023-04-06T01:30:03.341Z,87.25
2023-04-06T01:31:03.352Z,86.20
2023-04-06T01:32:03.363Z,86.10
2023-04-06T01:33:03.346Z,86.52
2023-04-06T01:34:03.298Z,86.10
2023-04-06T01:35:03.291Z,86.52
2023-04-06T01:36:03.304Z,86.94
2023-04-06T01:37:03.292Z,86.41
2023-04-06T01:38:03.339Z,86.72
2023-04-06T01:39:03.257Z,86.52
2023-04-06T01:40:03.249Z,85.89
2023-04-06T01:41:03.229Z,86.20
2023-04-06T01:42:03.250Z,86.41
2023-04-06T01:43:03.212Z,86.72
2023-04-06T01:44:03.219Z,85.89
2023-04-06T01:45:03.214Z,86.41
2023-04-06T01:46:03.213Z,85.72
2023-04-06T01:47:03.228Z,86.66
2023-04-06T01:48:03.203Z,87.04
2023-04-06T01:49:03.169Z,87.15
2023-04-06T01:50:03.176Z,86.94
2023-04-06T01:51:03.171Z,87.40
2023-04-06T01:52:03.186Z,87.15
2023-04-06T01:53:03.139Z,86.94
2023-04-06T01:54:03.135Z,85.89
2023-04-06T01:55:03.149Z,86.62
2023-04-06T01:56:03.125Z,86.98
2023-04-06T01:57:03.139Z,86.41
2023-04-06T01:58:03.101Z,86.66
2023-04-06T01:59:03.106Z,86.55
2023-04-06T02:00:03.106Z,86.35
2023-04-06T02:01:03.201Z,87.19
2023-04-06T02:02:03.166Z,87.08
2023-04-06T02:03:03.173Z,87.19
2023-04-06T02:04:03.069Z,87.29
2023-04-06T02:05:03.075Z,86.87
2023-04-06T02:06:03.045Z,87.19
2023-04-06T02:07:03.083Z,86.98
2023-04-06T02:08:03.029Z,87.08
2023-04-06T02:09:03.028Z,87.60
2023-04-06T02:10:03.018Z,87.40
2023-04-06T02:11:03.017Z,87.08
2023-04-06T02:12:03.042Z,87.29
2023-04-06T02:13:03.002Z,87.40
2023-04-06T02:14:02.996Z,87.82
2023-04-06T02:15:02.976Z,87.60
2023-04-06T02:16:03.012Z,87.85
2023-04-06T02:17:03.021Z,88.07
2023-04-06T02:18:03.014Z,88.49
2023-04-06T02:19:02.969Z,88.38
2023-04-06T02:20:02.974Z,88.80
2023-04-06T02:21:02.952Z,88.91
2023-04-06T02:22:02.933Z,88.59
2023-04-06T02:23:02.944Z,88.91
2023-04-06T02:24:02.918Z,88.49
2023-04-06T02:25:02.911Z,88.80
2023-04-06T02:26:02.901Z,88.38
2023-04-06T02:27:02.902Z,87.96
2023-04-06T02:28:02.943Z,88.38
2023-04-06T02:29:02.884Z,88.07
2023-04-06T02:30:02.891Z,87.50
2023-04-06T02:31:02.871Z,87.65
2023-04-06T02:32:02.873Z,87.82
2023-04-06T02:33:02.982Z,87.85
2023-04-06T02:34:02.848Z,88.17
2023-04-06T02:35:02.844Z,87.96
2023-04-06T02:36:02.857Z,87.96
2023-04-06T02:37:02.824Z,87.96
2023-04-06T02:38:02.843Z,88.38
2023-04-06T02:39:02.808Z,89.01
2023-04-06T02:40:02.814Z,88.91
2023-04-06T02:41:02.801Z,88.70
2023-04-06T02:42:02.786Z,88.59
2023-04-06T02:43:02.808Z,88.70
2023-04-06T02:44:02.768Z,88.80
2023-04-06T02:45:02.773Z,89.75
2023-04-06T02:46:02.872Z,89.86
2023-04-06T02:47:02.760Z,89.75
2023-04-06T02:48:02.788Z,88.91
2023-04-06T02:49:02.765Z,88.91
2023-04-06T02:50:02.735Z,89.01
2023-04-06T02:51:02.728Z,89.22
2023-04-06T02:52:02.719Z,89.22
2023-04-06T02:53:02.737Z,89.32
2023-04-06T02:54:02.710Z,88.91
2023-04-06T02:55:02.720Z,89.12
2023-04-06T02:56:02.727Z,89.12
2023-04-06T02:57:02.694Z,88.80
2023-04-06T02:58:02.718Z,88.70
2023-04-06T02:59:02.743Z,88.80
2023-04-06T03:00:02.669Z,88.91
2023-04-06T03:01:02.743Z,88.80
2023-04-06T03:02:02.655Z,88.70
2023-04-06T03:03:02.749Z,89.22
2023-04-06T03:04:02.640Z,89.07
2023-04-06T03:05:02.670Z,88.91
2023-04-06T03:06:02.622Z,89.32
2023-04-06T03:07:02.610Z,89.75
2023-04-06T03:08:02.648Z,89.22
2023-04-06T03:09:02.605Z,89.22
2023-04-06T03:10:02.641Z,89.12
2023-04-06T03:11:03.620Z,88.91
2023-04-06T03:12:02.579Z,89.01
2023-04-06T03:13:02.603Z,89.22
2023-04-06T03:14:03.570Z,88.91
2023-04-06T03:15:02.578Z,88.91
2023-04-06T03:16:02.656Z,89.01
2023-04-06T03:17:02.548Z,88.84
2023-04-06T03:18:02.599Z,88.80
2023-04-06T03:19:02.525Z,88.74
2023-04-06T03:20:02.542Z,88.80
2023-04-06T03:21:02.529Z,88.74
2023-04-06T03:22:02.524Z,88.95
2023-04-06T03:23:02.537Z,88.84
2023-04-06T03:24:02.500Z,89.62
2023-04-06T03:25:03.726Z,90.46
2023-04-06T03:26:03.474Z,90.88
2023-04-06T03:27:02.509Z,90.99
2023-04-06T03:28:02.497Z,90.99
2023-04-06T03:29:02.464Z,91.30
2023-04-06T03:30:02.440Z,90.88
2023-04-06T03:31:02.500Z,91.20
2023-04-06T03:32:02.428Z,90.67
2023-04-06T03:33:02.478Z,90.46
2023-04-06T03:34:02.430Z,90.46
2023-04-06T03:35:02.413Z,90.50
2023-04-06T03:36:02.451Z,90.40
2023-04-06T03:37:09.755Z,90.25
2023-04-06T03:38:04.417Z,90.40
2023-04-06T03:39:02.391Z,90.40
2023-04-06T03:40:02.375Z,90.50
2023-04-06T03:41:02.365Z,90.61
2023-04-06T03:42:02.360Z,90.82
2023-04-06T03:43:02.383Z,91.13
2023-04-06T03:44:02.357Z,91.45
2023-04-06T03:45:02.346Z,91.77
2023-04-06T03:46:02.405Z,92.08
2023-04-06T03:47:02.316Z,92.40
2023-04-06T03:48:02.393Z,92.08
2023-04-06T03:49:02.312Z,92.19
2023-04-06T03:50:02.297Z,92.61
2023-04-06T03:51:02.292Z,92.50
2023-04-06T03:52:02.303Z,92.19
2023-04-06T03:53:02.311Z,91.55
2023-04-06T03:54:02.270Z,91.77
2023-04-06T03:55:02.265Z,91.81
2023-04-06T03:56:04.624Z,91.60
2023-04-06T03:57:03.249Z,91.49
2023-04-06T03:58:02.280Z,91.55
2023-04-06T03:59:02.278Z,91.77
2023-04-06T04:00:02.241Z,91.66
2023-04-06T04:01:02.214Z,91.24
2023-04-06T04:02:02.332Z,90.71
2023-04-06T04:03:02.289Z,91.03
2023-04-06T04:04:02.217Z,91.03
2023-04-06T04:05:02.245Z,91.13
2023-04-06T04:06:02.187Z,91.13
2023-04-06T04:07:02.173Z,91.28
2023-04-06T04:08:02.229Z,91.24
2023-04-06T04:09:02.157Z,91.13
2023-04-06T04:10:02.154Z,90.40
2023-04-06T04:11:02.154Z,90.50
2023-04-06T04:12:02.142Z,90.19
2023-04-06T04:13:02.155Z,90.29
2023-04-06T04:14:02.129Z,89.66
2023-04-06T04:15:02.125Z,89.59
2023-04-06T04:16:02.131Z,89.91
2023-04-06T04:17:02.115Z,90.29
2023-04-06T04:18:02.181Z,90.29
2023-04-06T04:19:02.089Z,90.40
2023-04-06T04:20:02.090Z,90.67
2023-04-06T04:21:02.078Z,90.50
2023-04-06T04:22:02.061Z,90.40
2023-04-06T04:23:02.083Z,90.08
2023-04-06T04:24:02.051Z,89.98
2023-04-06T04:25:02.054Z,90.50
2023-04-06T04:26:02.036Z,90.08
2023-04-06T04:27:02.080Z,90.50
2023-04-06T04:28:02.073Z,90.50
2023-04-06T04:29:02.022Z,90.08
2023-04-06T04:30:02.009Z,90.04
2023-04-06T04:31:02.010Z,90.40
2023-04-06T04:32:02.023Z,90.19
2023-04-06T04:33:02.025Z,90.29
2023-04-06T04:34:02.000Z,89.72
2023-04-06T04:35:01.981Z,90.04
2023-04-06T04:36:02.020Z,90.25
2023-04-06T04:37:01.976Z,90.29
2023-04-06T04:38:02.006Z,90.29
2023-04-06T04:39:01.948Z,90.40
2023-04-06T04:40:01.951Z,90.82
2023-04-06T04:41:01.940Z,90.40
2023-04-06T04:42:01.947Z,90.61
2023-04-06T04:43:33.873Z,90.61
2023-04-06T04:44:01.924Z,90.61
2023-04-06T04:45:01.911Z,90.40
2023-04-06T04:46:01.973Z,89.87
2023-04-06T04:47:01.892Z,90.19
2023-04-06T04:48:02.037Z,90.56
2023-04-06T04:49:01.898Z,90.29
2023-04-06T04:50:01.901Z,90.50
2023-04-06T04:51:01.882Z,90.50
2023-04-06T04:52:01.867Z,90.46
2023-04-06T04:53:01.932Z,90.61
2023-04-06T04:54:01.867Z,90.50
2023-04-06T04:55:01.840Z,90.08
2023-04-06T04:56:01.831Z,90.56
2023-04-06T04:57:01.829Z,90.36
2023-04-06T04:58:01.851Z,90.04
2023-04-06T04:59:01.878Z,89.72
2023-04-06T05:00:01.816Z,89.72
2023-04-06T05:01:01.863Z,89.20
2023-04-06T05:02:01.916Z,90.04
2023-04-06T05:03:01.875Z,89.62
2023-04-06T05:04:01.777Z,89.94
2023-04-06T05:05:01.805Z,89.20
2023-04-06T05:06:01.764Z,89.41
2023-04-06T05:07:01.762Z,89.20
2023-04-06T05:08:01.780Z,89.09
2023-04-06T05:09:01.740Z,89.14
2023-04-06T05:10:01.737Z,89.09
2023-04-06T05:11:01.730Z,88.99
2023-04-06T05:12:01.728Z,89.72
2023-04-06T05:13:01.774Z,89.83
2023-04-06T05:14:01.889Z,89.76
2023-04-06T05:15:01.702Z,89.87
2023-04-06T05:16:01.765Z,90.50
2023-04-06T05:17:01.703Z,90.75
2023-04-06T05:18:01.762Z,91.13
2023-04-06T05:19:01.678Z,91.45
2023-04-06T05:20:01.685Z,91.35
2023-04-06T05:21:01.670Z,91.13
2023-04-06T05:22:01.699Z,90.88
2023-04-06T05:23:01.674Z,90.29
2023-04-06T05:24:01.688Z,90.19
2023-04-06T05:25:01.632Z,89.62
2023-04-06T05:26:01.627Z,89.94
2023-04-06T05:27:01.609Z,90.25
2023-04-06T05:28:01.642Z,89.72
2023-04-06T05:29:01.612Z,89.94
2023-04-06T05:30:01.605Z,89.64
2023-04-06T05:31:01.622Z,88.97
2023-04-06T05:32:01.586Z,87.70
2023-04-06T05:33:01.680Z,86.53
2023-04-06T05:34:01.580Z,84.36
2023-04-06T05:35:01.564Z,82.29
2023-04-06T05:36:01.653Z,80.27
2023-04-06T05:37:01.539Z,78.91
2023-04-06T05:38:01.627Z,78.88
2023-04-06T05:39:01.549Z,77.20
2023-04-06T05:40:01.531Z,77.24
2023-04-06T05:41:01.507Z,77.03
2023-04-06T05:42:01.509Z,76.30
2023-04-06T05:43:01.526Z,76.79
2023-04-06T05:44:01.488Z,76.16
2023-04-06T05:45:01.486Z,76.26
2023-04-06T05:46:01.535Z,75.12
2023-04-06T05:47:01.500Z,75.78
2023-04-06T05:48:01.515Z,76.51
2023-04-06T05:49:01.518Z,77.38
2023-04-06T05:50:01.448Z,76.86
2023-04-06T05:51:01.424Z,77.06
2023-04-06T05:52:02.492Z,77.90
2023-04-06T05:53:01.416Z,77.06
2023-04-06T05:54:01.433Z,77.69
2023-04-06T05:55:01.433Z,77.38
2023-04-06T05:56:01.384Z,77.48
2023-04-06T05:57:01.431Z,76.86
2023-04-06T05:58:01.397Z,78.00
2023-04-06T05:59:01.509Z,78.32
2023-04-06T06:00:01.354Z,78.63
2023-04-06T06:01:01.366Z,78.67
2023-04-06T06:02:01.370Z,78.53
2023-04-06T06:03:01.527Z,78.04
2023-04-06T06:04:01.357Z,78.81
2023-04-06T06:05:01.385Z,79.02
2023-04-06T06:06:01.324Z,79.96
2023-04-06T06:07:01.305Z,79.54
2023-04-06T06:08:01.299Z,79.64
2023-04-06T06:09:01.328Z,79.58
2023-04-06T06:10:01.298Z,80.45
2023-04-06T06:11:01.271Z,81.53
2023-04-06T06:12:01.263Z,81.74
2023-04-06T06:13:01.262Z,82.26
2023-04-06T06:14:01.301Z,82.16
2023-04-06T06:15:01.251Z,82.68
2023-04-06T06:16:01.248Z,82.68
2023-04-06T06:17:01.228Z,83.31
2023-04-06T06:18:01.381Z,83.21
2023-04-06T06:19:01.302Z,83.25
2023-04-06T06:20:01.232Z,82.89
2023-04-06T06:21:01.206Z,83.31
2023-04-06T06:22:01.199Z,83.80
2023-04-06T06:23:01.217Z,83.65
2023-04-06T06:24:01.207Z,82.82
2023-04-06T06:25:01.167Z,82.71
2023-04-06T06:26:01.156Z,82.82
2023-04-06T06:27:01.187Z,82.05
2023-04-06T06:28:01.143Z,82.15
2023-04-06T06:29:01.254Z,82.19
2023-04-06T06:30:01.131Z,82.40
2023-04-06T06:31:01.136Z,82.67
2023-04-06T06:32:01.287Z,82.99
2023-04-06T06:33:01.178Z,82.89
2023-04-06T06:34:01.162Z,82.15
2023-04-06T06:35:01.199Z,82.46
2023-04-06T06:36:01.140Z,83.09
2023-04-06T06:37:01.090Z,83.30
2023-04-06T06:38:01.090Z,83.37
2023-04-06T06:39:01.091Z,83.64
2023-04-06T06:40:01.052Z,82.70
2023-04-06T06:41:01.080Z,81.83
2023-04-06T06:42:01.039Z,80.93
2023-04-06T06:43:01.041Z,81.90
2023-04-06T06:44:01.278Z,82.81
2023-04-06T06:45:01.009Z,82.50
2023-04-06T06:46:01.034Z,80.20
2023-04-06T06:47:01.013Z,81.66
2023-04-06T06:48:01.050Z,81.62
2023-04-06T06:49:01.014Z,81.52
2023-04-06T06:50:01.026Z,80.13
2023-04-06T06:51:00.992Z,80.09
2023-04-06T06:52:01.003Z,79.11
2023-04-06T06:53:00.967Z,78.94
2023-04-06T06:54:00.979Z,78.94
2023-04-06T06:55:01.063Z,78.73
2023-04-06T06:56:00.958Z,79.01
2023-04-06T06:57:00.928Z,79.74
2023-04-06T06:58:01.209Z,79.63
2023-04-06T06:59:00.962Z,79.84
2023-04-06T07:00:01.023Z,78.91
2023-04-06T07:01:01.071Z,78.80
2023-04-06T07:02:00.916Z,78.56
2023-04-06T07:03:01.016Z,78.87
2023-04-06T07:04:01.000Z,77.89
2023-04-06T07:05:00.941Z,78.63
2023-04-06T07:06:00.882Z,78.17
2023-04-06T07:07:00.883Z,77.75
2023-04-06T07:08:01.018Z,77.48
2023-04-06T07:09:00.860Z,77.40
2023-04-06T07:10:00.868Z,76.64
2023-04-06T07:11:00.834Z,76.12
2023-04-06T07:12:00.893Z,75.92
2023-04-06T07:13:00.821Z,75.81
2023-04-06T07:14:00.808Z,75.57
2023-04-06T07:15:00.825Z,75.26
2023-04-06T07:16:00.820Z,75.05
2023-04-06T07:17:00.842Z,75.15
2023-04-06T07:18:00.816Z,74.32
2023-04-06T07:19:00.986Z,74.01
2023-04-06T07:20:00.789Z,74.67
2023-04-06T07:21:00.816Z,76.51
2023-04-06T07:22:00.741Z,77.13
2023-04-06T07:23:00.828Z,76.57
2023-04-06T07:24:00.744Z,76.57
2023-04-06T07:25:00.767Z,76.75
2023-04-06T07:26:00.731Z,76.16
2023-04-06T07:27:00.753Z,77.20
2023-04-06T07:28:00.704Z,78.06
2023-04-06T07:29:00.680Z,77.48
2023-04-06T07:30:00.841Z,77.48
2023-04-06T07:31:00.672Z,78.72
2023-04-06T07:32:00.675Z,79.55
2023-04-06T07:33:00.748Z,78.48
2023-04-06T07:34:00.658Z,78.69
2023-04-06T07:35:00.721Z,78.52
2023-04-06T07:36:00.685Z,79.14
2023-04-06T07:37:01.801Z,79.17
2023-04-06T07:38:00.616Z,79.80
2023-04-06T07:39:00.618Z,79.28
2023-04-06T07:40:00.647Z,80.01
2023-04-06T07:41:00.601Z,80.60
2023-04-06T07:42:00.617Z,79.72
2023-04-06T07:43:00.587Z,78.69
2023-04-06T07:44:00.678Z,78.38
2023-04-06T07:45:00.604Z,79.62
2023-04-06T07:46:00.608Z,79.52
2023-04-06T07:47:00.549Z,80.87
2023-04-06T07:48:00.605Z,79.21
2023-04-06T07:49:00.541Z,80.87
2023-04-06T07:50:00.563Z,79.55
2023-04-06T07:51:00.525Z,81.12
2023-04-06T07:52:00.575Z,79.72
2023-04-06T07:53:00.508Z,79.69
2023-04-06T07:54:00.503Z,77.95
2023-04-06T07:55:00.522Z,77.44
2023-04-06T07:56:00.488Z,76.75
2023-04-06T07:57:00.478Z,76.64
2023-04-06T07:58:00.490Z,76.57
2023-04-06T07:59:00.505Z,75.19
2023-04-06T08:00:00.506Z,73.43
2023-04-06T08:01:00.451Z,73.19
2023-04-06T08:02:00.467Z,72.56
2023-04-06T08:03:00.524Z,71.33
2023-04-06T08:04:00.598Z,71.94
2023-04-06T08:05:21.120Z,71.67
2023-04-06T08:06:01.417Z,72.19
2023-04-06T08:07:00.434Z,73.50
2023-04-06T08:08:00.410Z,72.43
2023-04-06T08:09:00.396Z,70.81
2023-04-06T08:10:00.428Z,71.36
2023-04-06T08:11:02.009Z,71.80
2023-04-06T08:12:01.471Z,72.36
2023-04-06T08:13:00.372Z,71.63
2023-04-06T08:14:00.356Z,70.57
2023-04-06T08:15:00.379Z,70.47
2023-04-06T08:16:00.370Z,68.80
2023-04-06T08:17:00.326Z,69.29
2023-04-06T08:18:00.357Z,70.61
2023-04-06T08:19:00.317Z,71.06
2023-04-06T08:20:00.326Z,67.24
2023-04-06T08:21:00.353Z,67.30
2023-04-06T08:22:00.297Z,67.95
2023-04-06T08:23:00.276Z,69.47
2023-04-06T08:24:00.270Z,69.33
2023-04-06T08:25:00.288Z,68.13
2023-04-06T08:26:00.257Z,67.41
2023-04-06T08:27:00.240Z,67.10
2023-04-06T08:28:00.322Z,66.69
2023-04-06T08:29:00.276Z,67.21
2023-04-06T08:30:00.275Z,66.21
2023-04-06T08:31:00.239Z,65.70
2023-04-06T08:32:00.212Z,65.77
2023-04-06T08:33:00.329Z,64.92
2023-04-06T08:34:00.198Z,63.24
2023-04-06T08:35:00.215Z,64.84
2023-04-06T08:36:00.200Z,64.53
2023-04-06T08:37:00.170Z,64.81
2023-04-06T08:38:00.278Z,63.17
2023-04-06T08:39:00.168Z,62.82
2023-04-06T08:40:00.209Z,62.82
2023-04-06T08:41:00.169Z,62.72
2023-04-06T08:42:00.144Z,64.14
2023-04-06T08:43:00.182Z,63.82
2023-04-06T08:44:00.116Z,62.33
2023-04-06T08:45:00.182Z,62.78
2023-04-06T08:46:00.164Z,62.48
2023-04-06T08:47:00.116Z,61.42
2023-04-06T08:48:00.258Z,61.08
2023-04-06T08:49:00.097Z,60.77
2023-04-06T08:50:00.195Z,60.36
2023-04-06T08:51:00.090Z,61.24
2023-04-06T08:52:00.123Z,62.92
2023-04-06T08:53:00.068Z,62.60
2023-04-06T08:54:00.102Z,63.12
2023-04-06T08:55:00.062Z,59.39
2023-04-06T08:56:00.715Z,60.80
2023-04-06T08:57:00.024Z,59.41
2023-04-06T08:58:00.019Z,58.46
2023-04-06T08:59:00.063Z,56.82
2023-04-06T08:59:59.998Z,55.49
2023-04-06T09:01:00.025Z,57.84
2023-04-06T09:02:00.003Z,55.77
2023-04-06T09:03:00.147Z,55.13
2023-04-06T09:04:00.093Z,55.43
2023-04-06T09:05:00.020Z,55.13
2023-04-06T09:06:00.030Z,53.56
2023-04-06T09:06:59.973Z,52.64
2023-04-06T09:08:00.934Z,54.38
2023-04-06T09:08:59.931Z,53.23
2023-04-06T09:09:59.929Z,53.92
2023-04-06T09:10:59.941Z,51.34
2023-04-06T09:11:59.904Z,51.04
2023-04-06T09:12:59.903Z,49.50
2023-04-06T09:13:59.900Z,49.89
2023-04-06T09:14:59.917Z,49.81
2023-04-06T09:15:59.952Z,50.52
2023-04-06T09:16:59.880Z,50.12
2023-04-06T09:17:59.942Z,48.99
2023-04-06T09:18:59.851Z,48.27
2023-04-06T09:19:59.909Z,49.07
2023-04-06T09:20:59.866Z,48.68
2023-04-06T09:21:59.832Z,50.09
2023-04-06T09:22:59.863Z,48.94
2023-04-06T09:23:59.988Z,48.94
2023-04-06T09:24:59.812Z,48.61
2023-04-06T09:25:59.837Z,48.54
2023-04-06T09:26:59.835Z,48.61
2023-04-06T09:27:59.787Z,47.08
2023-04-06T09:28:59.772Z,47.82
2023-04-06T09:30:00.771Z,48.02
2023-04-06T09:30:59.802Z,46.90
2023-04-06T09:31:59.868Z,45.70
2023-04-06T09:32:59.818Z,47.20
2023-04-06T09:33:59.768Z,47.60
2023-04-06T09:34:59.740Z,46.26
2023-04-06T09:35:59.804Z,47.60
2023-04-06T09:36:59.725Z,46.66
2023-04-06T09:37:59.727Z,45.92
2023-04-06T09:38:59.702Z,46.10
2023-04-06T09:39:59.707Z,47.22
2023-04-06T09:41:01.226Z,45.51
2023-04-06T09:42:00.757Z,45.18
2023-04-06T09:42:59.719Z,44.26
2023-04-06T09:43:59.664Z,43.65
2023-04-06T09:44:59.666Z,43.96
2023-04-06T09:45:59.720Z,43.35
2023-04-06T09:47:01.146Z,42.76
2023-04-06T09:48:00.772Z,42.55
2023-04-06T09:48:59.629Z,42.36
2023-04-06T09:49:59.634Z,43.29
2023-04-06T09:50:59.639Z,44.69
2023-04-06T09:51:59.619Z,43.14
2023-04-06T09:52:59.602Z,43.94
2023-04-06T09:53:59.597Z,42.92
2023-04-06T09:54:59.581Z,42.51
2023-04-06T09:55:59.601Z,42.85
2023-04-06T09:56:59.620Z,43.75
2023-04-06T09:57:59.597Z,42.43
2023-04-06T09:58:59.584Z,42.65
2023-04-06T09:59:59.546Z,42.96
2023-04-06T10:00:59.697Z,42.53
2023-04-06T10:01:59.527Z,43.73
2023-04-06T10:02:59.573Z,43.20
2023-04-06T10:03:59.718Z,43.53
2023-04-06T10:04:59.514Z,43.00
2023-04-06T10:05:59.607Z,42.10
2023-04-06T10:06:59.492Z,42.51
2023-04-06T10:08:01.129Z,42.43
2023-04-06T10:09:00.485Z,42.14
2023-04-06T10:09:59.503Z,43.57
2023-04-06T10:10:59.484Z,43.26
2023-04-06T10:11:59.447Z,44.46
2023-04-06T10:12:59.434Z,42.82
2023-04-06T10:14:00.442Z,42.68
2023-04-06T10:14:59.419Z,40.98
2023-04-06T10:15:59.503Z,41.51
2023-04-06T10:16:59.410Z,41.61
2023-04-06T10:17:59.420Z,41.61
2023-04-06T10:18:59.385Z,42.02
2023-04-06T10:19:59.384Z,42.92
2023-04-06T10:20:59.377Z,43.51
2023-04-06T10:21:59.399Z,41.88
2023-04-06T10:22:59.360Z,41.45
2023-04-06T10:23:59.354Z,41.37
2023-04-06T10:24:59.351Z,41.14
2023-04-06T10:25:59.333Z,41.16
2023-04-06T10:26:59.348Z,40.86
2023-04-06T10:27:59.323Z,42.77
2023-04-06T10:28:59.329Z,43.18
2023-04-06T10:29:59.314Z,42.86
2023-04-06T10:30:59.321Z,41.23
2023-04-06T10:31:59.376Z,41.21
2023-04-06T10:32:59.476Z,41.61
2023-04-06T10:33:59.280Z,41.11
2023-04-06T10:34:59.282Z,41.41
2023-04-06T10:35:59.334Z,41.53
2023-04-06T10:36:59.286Z,41.45
2023-04-06T10:37:59.245Z,42.98
2023-04-06T10:38:59.373Z,42.47
2023-04-06T10:39:59.276Z,42.88
2023-04-06T10:40:59.229Z,42.96
2023-04-06T10:41:59.259Z,40.82
2023-04-06T10:43:31.678Z,42.27
2023-04-06T10:43:59.209Z,42.16
2023-04-06T10:44:59.197Z,41.53
2023-04-06T10:45:59.270Z,40.72
2023-04-06T10:46:59.302Z,41.02
2023-04-06T10:47:59.250Z,41.84
2023-04-06T10:48:59.170Z,42.35
2023-04-06T10:49:59.160Z,42.83
2023-04-06T10:50:59.155Z,42.61
2023-04-06T10:51:59.341Z,42.31
2023-04-06T10:52:59.135Z,40.66
2023-04-06T10:53:59.125Z,42.00
2023-04-06T10:54:59.142Z,42.10
2023-04-06T10:55:59.117Z,42.92
2023-04-06T10:56:59.132Z,42.10
2023-04-06T10:57:59.099Z,40.48
2023-04-06T10:58:59.125Z,40.99
2023-04-06T10:59:59.088Z,41.27
2023-04-06T11:00:59.108Z,41.17
2023-04-06T11:01:59.094Z,41.68
2023-04-06T11:02:59.083Z,42.29
2023-04-06T11:03:59.148Z,41.17
2023-04-06T11:04:59.061Z,41.09
2023-04-06T11:05:59.027Z,41.21
2023-04-06T11:06:59.063Z,41.11
2023-04-06T11:07:59.024Z,41.21
2023-04-06T11:08:59.005Z,41.72
2023-04-06T11:10:14.007Z,41.84
2023-04-06T11:11:01.014Z,40.91
2023-04-06T11:11:59.055Z,41.21
2023-04-06T11:12:58.980Z,41.39
2023-04-06T11:13:58.966Z,40.99
2023-04-06T11:14:58.966Z,41.13
2023-04-06T11:15:58.951Z,41.14
2023-04-06T11:16:59.057Z,41.78
2023-04-06T11:17:59.014Z,41.96
2023-04-06T11:18:58.939Z,41.37
2023-04-06T11:19:58.923Z,42.49
2023-04-06T11:20:58.918Z,42.59
2023-04-06T11:21:59.928Z,42.49
2023-04-06T11:22:59.910Z,42.29
2023-04-06T11:23:58.898Z,42.39
2023-04-06T11:24:58.886Z,42.90
2023-04-06T11:25:58.885Z,42.47
2023-04-06T11:26:58.933Z,42.57
2023-04-06T11:27:58.885Z,42.86
2023-04-06T11:28:58.856Z,41.13
2023-04-06T11:29:58.864Z,40.70
2023-04-06T11:30:59.979Z,42.33
2023-04-06T11:31:58.837Z,41.31
2023-04-06T11:32:58.874Z,42.61
2023-04-06T11:33:58.821Z,43.02
2023-04-06T11:34:58.805Z,40.77
2023-04-06T11:35:58.873Z,42.41
2023-04-06T11:36:58.799Z,41.52
2023-04-06T11:38:00.456Z,41.94
2023-04-06T11:38:59.783Z,42.04
2023-04-06T11:39:58.798Z,42.74
2023-04-06T11:40:58.756Z,42.51
2023-04-06T11:41:58.751Z,42.41
2023-04-06T11:42:58.775Z,42.51
2023-04-06T11:43:58.741Z,41.29
2023-04-06T11:44:58.733Z,41.82
2023-04-06T11:45:58.729Z,41.41
2023-04-06T11:46:58.710Z,41.45
2023-04-06T11:47:58.769Z,42.68
2023-04-06T11:48:58.771Z,43.26
2023-04-06T11:49:58.693Z,42.63
2023-04-06T11:50:58.690Z,43.04
2023-04-06T11:51:58.717Z,43.30
2023-04-06T11:52:58.688Z,42.59
2023-04-06T11:53:59.730Z,42.90
2023-04-06T11:54:58.666Z,43.00
2023-04-06T11:55:58.673Z,43.00
2023-04-06T11:56:58.673Z,42.49
2023-04-06T11:57:58.636Z,42.39
2023-04-06T11:58:58.732Z,42.10
2023-04-06T11:59:58.619Z,42.41
2023-04-06T12:00:58.608Z,42.31
2023-04-06T12:01:58.611Z,42.21
2023-04-06T12:02:58.660Z,42.71
2023-04-06T12:03:58.668Z,43.38
2023-04-06T12:04:58.592Z,42.35
2023-04-06T12:05:59.437Z,41.24
2023-04-06T12:06:59.558Z,41.84
2023-04-06T12:08:00.126Z,42.55
2023-04-06T12:08:58.616Z,42.74
2023-04-06T12:09:58.537Z,41.84
2023-04-06T12:10:58.534Z,41.13
2023-04-06T12:11:58.512Z,42.76
2023-04-06T12:12:58.508Z,43.04
2023-04-06T12:13:58.533Z,41.24
2023-04-06T12:14:58.491Z,41.17
2023-04-06T12:15:58.543Z,42.10
2023-04-06T12:16:58.484Z,42.83
2023-04-06T12:17:58.496Z,42.74
2023-04-06T12:18:58.554Z,43.14
2023-04-06T12:20:05.149Z,42.63
2023-04-06T12:21:00.445Z,42.74
2023-04-06T12:21:58.453Z,42.10
2023-04-06T12:22:58.565Z,42.39
2023-04-06T12:23:58.453Z,42.08
2023-04-06T12:24:58.422Z,41.17
2023-04-06T12:25:58.409Z,41.27
2023-04-06T12:27:08.698Z,40.97
2023-04-06T12:28:00.400Z,41.78
2023-04-06T12:28:58.432Z,41.38
2023-04-06T12:29:58.380Z,42.39
2023-04-06T12:30:58.389Z,41.46
2023-04-06T12:31:58.466Z,41.74
2023-04-06T12:32:58.439Z,41.62
2023-04-06T12:33:58.381Z,41.19
2023-04-06T12:34:58.343Z,40.91
2023-04-06T12:35:58.381Z,41.54
2023-04-06T12:36:58.458Z,41.38
2023-04-06T12:37:58.318Z,41.99
2023-04-06T12:38:58.340Z,42.59
2023-04-06T12:39:58.307Z,42.69
2023-04-06T12:40:58.292Z,41.47
2023-04-06T12:41:58.296Z,42.39
2023-04-06T12:42:58.281Z,41.78
2023-04-06T12:43:58.303Z,41.96
2023-04-06T12:44:58.269Z,42.07
2023-04-06T12:45:58.267Z,41.94
2023-04-06T12:46:58.299Z,41.64
2023-04-06T12:47:58.288Z,41.96
2023-04-06T12:48:58.257Z,42.35
2023-04-06T12:49:58.229Z,41.46
2023-04-06T12:50:58.225Z,41.76
2023-04-06T12:51:58.210Z,41.74